createdAt,value
2018-12-19T00:01:25.193Z,1.30
2018-12-19T00:03:52.690Z,1.30
2018-12-19T00:06:20.137Z,1.30
2018-12-19T00:08:47.571Z,1.30
2018-12-19T00:11:15.003Z,1.30
2018-12-19T00:13:42.459Z,1.30
2018-12-19T00:16:09.893Z,1.30
2018-12-19T00:18:37.332Z,1.40
2018-12-19T00:21:04.787Z,1.30
2018-12-19T00:23:32.239Z,1.30
2018-12-19T00:25:59.685Z,1.30
2018-12-19T00:28:27.129Z,1.40
2018-12-19T00:30:54.577Z,1.50
2018-12-19T00:33:22.022Z,1.40
2018-12-19T00:35:49.473Z,1.50
2018-12-19T00:38:16.925Z,1.50
2018-12-19T00:40:44.373Z,1.50
2018-12-19T00:43:11.817Z,1.50
2018-12-19T00:45:39.247Z,1.50
2018-12-19T00:48:07.449Z,1.40
2018-12-19T00:50:34.901Z,1.40
2018-12-19T00:53:02.333Z,1.50
2018-12-19T00:55:29.788Z,1.50
2018-12-19T00:57:57.213Z,1.50
2018-12-19T01:00:24.707Z,1.50
2018-12-19T01:02:52.163Z,1.50
2018-12-19T01:05:19.602Z,1.60
2018-12-19T01:07:47.081Z,1.70
2018-12-19T01:10:14.533Z,1.60
2018-12-19T01:12:41.984Z,1.60
2018-12-19T01:15:09.427Z,1.60
2018-12-19T01:17:36.866Z,1.70
2018-12-19T01:20:04.528Z,1.60
2018-12-19T01:22:31.981Z,1.60
2018-12-19T01:24:59.427Z,1.60
2018-12-19T01:27:26.882Z,1.80
2018-12-19T01:29:54.305Z,1.80
2018-12-19T01:32:21.767Z,1.70
2018-12-19T01:34:49.218Z,1.80
2018-12-19T01:37:17.282Z,1.80
2018-12-19T01:39:44.700Z,1.70
2018-12-19T01:42:12.233Z,1.70
2018-12-19T01:44:39.668Z,1.80
2018-12-19T01:47:07.107Z,1.80
2018-12-19T01:49:34.548Z,1.70
2018-12-19T01:52:02.045Z,1.80
2018-12-19T01:54:29.479Z,1.80
2018-12-19T01:56:56.932Z,1.80
2018-12-19T01:59:24.370Z,1.70
2018-12-19T02:01:51.833Z,1.80
2018-12-19T02:04:19.277Z,1.80
2018-12-19T02:06:46.703Z,1.80
2018-12-19T02:09:14.943Z,1.90
2018-12-19T02:11:42.388Z,1.90
2018-12-19T02:14:09.845Z,1.90
2018-12-19T02:16:37.281Z,1.90
2018-12-19T02:19:04.751Z,2.00
2018-12-19T02:21:32.199Z,2.10
2018-12-19T02:23:59.626Z,2.10
2018-12-19T02:26:27.082Z,2.20
2018-12-19T02:28:54.565Z,2.20
2018-12-19T02:31:22.003Z,2.40
2018-12-19T02:33:49.596Z,2.40
2018-12-19T02:36:17.051Z,2.30
2018-12-19T02:38:44.476Z,2.50
2018-12-19T02:41:11.944Z,2.50
2018-12-19T02:43:39.386Z,2.50
2018-12-19T02:46:06.850Z,2.60
2018-12-19T02:48:34.280Z,2.70
2018-12-19T02:51:01.765Z,2.70
2018-12-19T02:53:29.204Z,2.70
2018-12-19T02:55:56.646Z,2.70
2018-12-19T02:58:24.122Z,2.80
2018-12-19T03:00:51.606Z,2.80
2018-12-19T03:03:19.083Z,2.90
2018-12-19T03:05:46.517Z,2.90
2018-12-19T03:08:13.963Z,3.00
2018-12-19T03:10:41.407Z,3.00
2018-12-19T03:13:08.914Z,3.10
2018-12-19T03:15:36.375Z,3.20
2018-12-19T03:18:03.841Z,3.20
2018-12-19T03:20:31.286Z,3.20
2018-12-19T03:22:58.729Z,3.20
2018-12-19T03:25:26.167Z,3.30
2018-12-19T03:27:53.595Z,3.30
2018-12-19T03:30:21.038Z,3.30
2018-12-19T03:32:48.492Z,3.50
2018-12-19T03:35:16.115Z,3.50
2018-12-19T03:37:43.575Z,3.50
2018-12-19T03:40:11.057Z,3.50
2018-12-19T03:42:38.505Z,3.50
2018-12-19T03:45:06.742Z,3.40
2018-12-19T03:47:34.209Z,3.50
2018-12-19T03:50:01.894Z,3.50
2018-12-19T03:52:29.347Z,3.50
2018-12-19T03:54:56.783Z,3.60
2018-12-19T03:57:24.400Z,3.70
2018-12-19T03:59:51.840Z,3.80
2018-12-19T04:02:19.301Z,3.80
2018-12-19T04:04:46.732Z,4.00
2018-12-19T04:07:14.210Z,4.10
2018-12-19T04:09:41.645Z,4.20
2018-12-19T04:12:09.097Z,4.20
2018-12-19T04:14:36.606Z,4.30
2018-12-19T04:17:04.060Z,4.30
2018-12-19T04:19:31.612Z,4.30
2018-12-19T04:21:59.035Z,4.20
2018-12-19T04:24:26.471Z,4.20
2018-12-19T04:26:54.005Z,4.20
2018-12-19T04:29:21.455Z,4.20
2018-12-19T04:31:48.889Z,4.30
2018-12-19T04:34:16.347Z,4.30
2018-12-19T04:36:43.800Z,4.30
2018-12-19T04:39:11.337Z,4.40
2018-12-19T04:41:38.783Z,4.40
2018-12-19T04:44:06.304Z,4.30
2018-12-19T04:46:33.755Z,4.40
2018-12-19T04:49:01.208Z,4.40
2018-12-19T04:51:28.664Z,4.50
2018-12-19T04:53:56.095Z,4.50
2018-12-19T04:56:23.529Z,4.60
2018-12-19T04:58:50.992Z,4.60
2018-12-19T05:01:18.519Z,4.70
2018-12-19T05:03:45.988Z,4.70
2018-12-19T05:06:13.420Z,4.70
2018-12-19T05:08:40.866Z,4.80
2018-12-19T05:11:08.359Z,4.80
2018-12-19T05:13:35.793Z,4.80
2018-12-19T05:16:03.229Z,4.90
2018-12-19T05:18:30.680Z,4.90
2018-12-19T05:20:58.200Z,4.90
2018-12-19T05:23:25.968Z,5.00
2018-12-19T05:25:53.406Z,5.00
2018-12-19T05:28:20.854Z,5.00
2018-12-19T05:30:48.286Z,5.10
2018-12-19T05:33:15.755Z,5.10
2018-12-19T05:35:43.218Z,5.20
2018-12-19T05:38:10.654Z,5.20
2018-12-19T05:40:38.164Z,5.30
2018-12-19T05:43:05.594Z,5.30
2018-12-19T05:45:33.037Z,5.40
2018-12-19T05:48:00.472Z,5.40
2018-12-19T05:50:27.961Z,5.40
2018-12-19T05:52:55.416Z,5.50
2018-12-19T05:55:22.853Z,5.60
2018-12-19T05:57:50.318Z,5.50
2018-12-19T06:00:17.926Z,5.60
2018-12-19T06:02:45.365Z,5.70
2018-12-19T06:05:12.827Z,5.60
2018-12-19T06:07:40.294Z,5.70
2018-12-19T06:10:07.783Z,5.80
2018-12-19T06:12:35.219Z,5.80
2018-12-19T06:15:03.044Z,5.90
2018-12-19T06:17:30.475Z,5.90
2018-12-19T06:19:57.915Z,6.00
2018-12-19T06:22:25.353Z,6.20
2018-12-19T06:24:52.816Z,6.10
2018-12-19T06:27:20.265Z,6.20
2018-12-19T06:29:47.700Z,6.20
2018-12-19T06:32:15.168Z,6.20
2018-12-19T06:34:42.635Z,6.30
2018-12-19T06:37:10.092Z,6.20
2018-12-19T06:39:37.545Z,6.30
2018-12-19T06:42:04.992Z,6.30
2018-12-19T06:44:32.426Z,6.40
2018-12-19T06:46:59.872Z,6.40
2018-12-19T06:49:27.318Z,6.50
2018-12-19T06:51:54.770Z,6.50
2018-12-19T06:54:22.223Z,6.50
2018-12-19T06:56:49.663Z,6.60
2018-12-19T06:59:17.124Z,6.60
2018-12-19T07:01:44.552Z,6.70
2018-12-19T07:04:11.976Z,6.70
2018-12-19T07:06:39.433Z,7.00
2018-12-19T07:09:07.156Z,7.10
2018-12-19T07:11:34.588Z,7.10
2018-12-19T07:14:02.064Z,7.20
2018-12-19T07:16:29.511Z,7.20
2018-12-19T07:18:56.972Z,7.50
2018-12-19T07:21:25.916Z,7.60
2018-12-19T07:23:53.653Z,7.70
2018-12-19T07:26:21.088Z,7.70
2018-12-19T07:28:48.547Z,7.60
2018-12-19T07:31:15.994Z,7.70
2018-12-19T07:33:43.459Z,7.80
2018-12-19T07:36:11.025Z,7.90
2018-12-19T07:38:38.484Z,8.00
2018-12-19T07:41:05.982Z,8.00
2018-12-19T07:43:33.430Z,8.00
2018-12-19T07:46:00.877Z,8.00
2018-12-19T07:48:28.686Z,8.20
2018-12-19T07:50:56.140Z,8.20
2018-12-19T07:53:23.570Z,8.20
2018-12-19T07:55:51.035Z,8.20
2018-12-19T07:58:18.486Z,8.20
2018-12-19T08:00:45.920Z,8.10
2018-12-19T08:03:13.395Z,8.10
2018-12-19T08:05:40.842Z,8.10
2018-12-19T08:08:08.301Z,8.30
2018-12-19T08:10:35.757Z,8.30
2018-12-19T08:13:03.224Z,8.30
2018-12-19T08:15:30.666Z,8.30
2018-12-19T08:17:58.106Z,8.20
2018-12-19T08:20:25.549Z,8.20
2018-12-19T08:22:52.975Z,8.20
2018-12-19T08:25:20.421Z,8.30
2018-12-19T08:27:47.843Z,8.30
2018-12-19T08:30:15.295Z,8.40
2018-12-19T08:32:42.733Z,8.30
2018-12-19T08:35:10.224Z,8.30
2018-12-19T08:37:37.648Z,8.40
2018-12-19T08:40:05.741Z,8.30
2018-12-19T08:42:33.187Z,8.40
2018-12-19T08:45:00.643Z,8.40
2018-12-19T08:47:28.087Z,8.40
2018-12-19T08:49:55.540Z,8.40
2018-12-19T08:52:22.979Z,8.30
2018-12-19T08:54:50.429Z,8.40
2018-12-19T08:57:17.921Z,8.40
2018-12-19T08:59:45.367Z,8.30
2018-12-19T09:02:12.979Z,8.30
2018-12-19T09:04:40.407Z,8.20
2018-12-19T09:07:07.854Z,8.30
2018-12-19T09:09:35.293Z,8.20
2018-12-19T09:12:02.772Z,8.20
2018-12-19T09:14:30.273Z,8.20
2018-12-19T09:16:57.692Z,8.30
2018-12-19T09:19:25.187Z,8.30
2018-12-19T09:21:52.658Z,8.20
2018-12-19T09:24:20.122Z,8.10
2018-12-19T09:26:47.557Z,7.90
2018-12-19T09:29:15.828Z,7.90
2018-12-19T09:31:46.374Z,7.80
2018-12-19T09:34:14.645Z,7.80
2018-12-19T09:36:42.087Z,7.80
2018-12-19T09:39:09.520Z,7.80
2018-12-19T09:41:37.035Z,7.80
2018-12-19T09:44:05.599Z,7.70
2018-12-19T09:46:33.079Z,7.70
2018-12-19T09:49:00.541Z,7.60
2018-12-19T09:51:28.033Z,7.70
2018-12-19T09:53:55.461Z,7.70
2018-12-19T09:56:22.931Z,7.80
2018-12-19T09:58:50.412Z,7.70
2018-12-19T10:01:17.859Z,7.80
2018-12-19T10:03:45.287Z,7.80
2018-12-19T10:06:12.739Z,7.90
2018-12-19T10:08:40.192Z,7.80
2018-12-19T10:11:07.636Z,7.80
2018-12-19T10:13:35.109Z,8.00
2018-12-19T10:16:04.153Z,8.00
2018-12-19T10:18:31.713Z,8.10
2018-12-19T10:20:59.221Z,8.20
2018-12-19T10:23:26.706Z,8.30
2018-12-19T10:25:59.762Z,8.20
2018-12-19T10:28:33.708Z,8.20
2018-12-19T10:31:01.164Z,8.10
2018-12-19T10:33:28.701Z,8.10
2018-12-19T10:35:56.161Z,8.10
2018-12-19T10:38:23.613Z,8.10
2018-12-19T10:40:51.069Z,8.10
2018-12-19T10:43:18.514Z,8.00
2018-12-19T10:45:45.972Z,8.10
2018-12-19T10:48:13.477Z,8.00
2018-12-19T10:50:40.896Z,8.10
2018-12-19T10:53:08.353Z,8.20
2018-12-19T10:55:35.783Z,8.20
2018-12-19T10:58:03.325Z,8.20
2018-12-19T11:00:36.585Z,8.30
2018-12-19T11:03:04.126Z,8.20
2018-12-19T11:05:31.591Z,8.30
2018-12-19T11:07:59.031Z,8.30
2018-12-19T11:10:26.515Z,8.40
2018-12-19T11:12:53.968Z,8.40
2018-12-19T11:15:21.414Z,8.40
2018-12-19T11:17:48.864Z,8.50
2018-12-19T11:20:16.349Z,8.50
2018-12-19T11:22:43.779Z,8.50
2018-12-19T11:25:11.221Z,8.60
2018-12-19T11:27:38.683Z,8.50
2018-12-19T11:30:06.989Z,8.40
2018-12-19T11:32:34.433Z,8.30
2018-12-19T11:35:01.892Z,8.30
2018-12-19T11:37:29.323Z,8.20
2018-12-19T11:39:56.791Z,8.20
2018-12-19T11:42:24.244Z,8.20
2018-12-19T11:44:51.696Z,8.30
2018-12-19T11:47:19.145Z,8.30
2018-12-19T11:49:46.605Z,8.50
2018-12-19T11:52:14.049Z,8.40
2018-12-19T11:54:41.502Z,8.40
2018-12-19T11:57:09.116Z,8.40
2018-12-19T11:59:36.567Z,8.40
2018-12-19T12:02:04.034Z,8.50
2018-12-19T12:04:31.501Z,8.60
2018-12-19T12:06:58.992Z,8.60
2018-12-19T12:09:26.415Z,8.60
2018-12-19T12:11:53.882Z,8.60
2018-12-19T12:14:21.359Z,8.60
2018-12-19T12:16:48.801Z,8.80
2018-12-19T12:19:16.272Z,8.80
2018-12-19T12:21:43.700Z,8.90
2018-12-19T12:24:11.151Z,9.00
2018-12-19T12:26:38.664Z,9.00
2018-12-19T12:29:06.084Z,9.10
2018-12-19T12:31:34.408Z,9.10
2018-12-19T12:34:01.899Z,9.10
2018-12-19T12:36:29.323Z,9.10
2018-12-19T12:38:56.784Z,9.10
2018-12-19T12:41:24.270Z,9.00
2018-12-19T12:43:51.737Z,9.10
2018-12-19T12:46:19.338Z,9.00
2018-12-19T12:48:46.781Z,9.10
2018-12-19T12:51:14.219Z,9.10
2018-12-19T12:53:41.678Z,9.10
2018-12-19T12:56:09.150Z,9.10
2018-12-19T12:58:36.604Z,9.10
2018-12-19T13:01:04.093Z,9.20
2018-12-19T13:03:31.539Z,9.20
2018-12-19T13:05:58.993Z,9.20
2018-12-19T13:08:26.440Z,9.20
2018-12-19T13:10:53.947Z,9.20
2018-12-19T13:13:21.384Z,9.10
2018-12-19T13:15:48.847Z,9.10
2018-12-19T13:18:16.289Z,9.20
2018-12-19T13:20:43.721Z,9.20
2018-12-19T13:23:11.165Z,9.30
2018-12-19T13:25:38.599Z,9.30
2018-12-19T13:28:06.044Z,9.30
2018-12-19T13:30:33.494Z,9.20
2018-12-19T13:33:01.029Z,9.20
2018-12-19T13:35:28.487Z,9.30
2018-12-19T13:37:55.933Z,9.10
2018-12-19T13:40:23.388Z,9.00
2018-12-19T13:42:50.852Z,9.10
2018-12-19T13:45:18.288Z,9.00
2018-12-19T13:47:45.730Z,8.90
2018-12-19T13:50:13.999Z,9.00
2018-12-19T13:52:41.457Z,9.00
2018-12-19T13:55:08.954Z,9.00
2018-12-19T13:57:36.418Z,9.10
2018-12-19T14:00:06.949Z,9.00
2018-12-19T14:02:34.367Z,9.00
2018-12-19T14:05:01.829Z,8.90
2018-12-19T14:07:29.273Z,8.90
2018-12-19T14:09:56.755Z,8.90
2018-12-19T14:12:24.217Z,8.90
2018-12-19T14:14:51.694Z,8.80
2018-12-19T14:17:19.222Z,8.80
2018-12-19T14:19:46.655Z,8.80
2018-12-19T14:22:14.132Z,8.70
2018-12-19T14:24:42.106Z,8.70
2018-12-19T14:27:09.671Z,8.70
2018-12-19T14:29:37.320Z,8.60
2018-12-19T14:32:04.796Z,8.60
2018-12-19T14:34:32.272Z,8.50
2018-12-19T14:36:59.714Z,8.40
2018-12-19T14:39:27.176Z,8.40
2018-12-19T14:41:54.629Z,8.30
2018-12-19T14:44:22.083Z,8.20
2018-12-19T14:46:49.551Z,8.20
2018-12-19T14:49:17.037Z,8.10
2018-12-19T14:51:44.477Z,8.00
2018-12-19T14:54:11.941Z,8.00
2018-12-19T14:56:39.367Z,8.00
2018-12-19T14:59:06.868Z,8.00
2018-12-19T15:01:34.323Z,7.90
2018-12-19T15:04:01.769Z,7.90
2018-12-19T15:06:29.279Z,8.00
2018-12-19T15:08:56.729Z,7.90
2018-12-19T15:11:24.194Z,8.00
2018-12-19T15:13:51.669Z,8.00
2018-12-19T15:16:21.075Z,8.00
2018-12-19T15:18:48.514Z,7.90
2018-12-19T15:21:16.088Z,7.90
2018-12-19T15:23:43.553Z,7.90
2018-12-19T15:26:10.983Z,8.00
2018-12-19T15:28:38.461Z,7.90
2018-12-19T15:31:05.909Z,7.90
2018-12-19T15:33:33.409Z,7.80
2018-12-19T15:36:01.257Z,7.70
2018-12-19T15:38:28.701Z,7.70
2018-12-19T15:40:56.199Z,7.50
2018-12-19T15:43:23.671Z,7.50
2018-12-19T15:45:51.091Z,7.40
2018-12-19T15:48:18.547Z,7.30
2018-12-19T15:50:55.486Z,7.30
2018-12-19T15:53:22.944Z,7.20
2018-12-19T15:55:50.389Z,7.30
2018-12-19T15:58:17.889Z,7.20
2018-12-19T16:00:45.328Z,7.20
2018-12-19T16:03:12.769Z,7.30
2018-12-19T16:05:40.238Z,7.20
2018-12-19T16:08:07.698Z,7.20
2018-12-19T16:10:35.149Z,7.20
2018-12-19T16:13:02.599Z,7.10
2018-12-19T16:15:30.049Z,7.10
2018-12-19T16:17:57.508Z,7.10
2018-12-19T16:20:25.012Z,7.00
2018-12-19T16:22:52.467Z,7.00
2018-12-19T16:25:19.924Z,6.90
2018-12-19T16:27:47.393Z,6.90
2018-12-19T16:30:14.846Z,6.80
2018-12-19T16:32:42.355Z,6.80
2018-12-19T16:35:09.879Z,6.80
2018-12-19T16:37:37.333Z,6.80
2018-12-19T16:40:04.898Z,6.80
2018-12-19T16:42:32.353Z,6.90
2018-12-19T16:44:59.810Z,6.80
2018-12-19T16:47:27.407Z,6.80
2018-12-19T16:49:54.848Z,6.80
2018-12-19T16:52:22.276Z,6.70
2018-12-19T16:54:49.743Z,6.70
2018-12-19T16:57:17.213Z,6.70
2018-12-19T16:59:44.654Z,6.70
2018-12-19T17:02:12.086Z,6.70
2018-12-19T17:04:39.520Z,6.70
2018-12-19T17:07:07.048Z,6.70
2018-12-19T17:09:34.473Z,6.60
2018-12-19T17:12:01.950Z,6.70
2018-12-19T17:14:29.389Z,6.70
2018-12-19T17:16:56.862Z,6.60
2018-12-19T17:19:24.316Z,6.60
2018-12-19T17:21:51.794Z,6.60
2018-12-19T17:24:21.184Z,6.60
2018-12-19T17:26:48.652Z,6.60
2018-12-19T17:29:16.103Z,6.60
2018-12-19T17:31:43.532Z,6.60
2018-12-19T17:34:11.057Z,6.60
2018-12-19T17:36:38.495Z,6.50
2018-12-19T17:39:06.383Z,6.50
2018-12-19T17:41:33.915Z,6.60
2018-12-19T17:44:01.354Z,6.60
2018-12-19T17:46:28.801Z,6.50
2018-12-19T17:48:56.270Z,6.40
2018-12-19T17:51:23.705Z,6.40
2018-12-19T17:53:51.235Z,6.30
2018-12-19T17:56:18.736Z,6.40
2018-12-19T17:58:46.248Z,6.40
2018-12-19T18:01:13.732Z,6.30
2018-12-19T18:03:41.226Z,6.40
2018-12-19T18:06:08.682Z,6.40
2018-12-19T18:08:36.124Z,6.40
2018-12-19T18:11:03.580Z,6.40
2018-12-19T18:13:31.059Z,6.40
2018-12-19T18:15:58.521Z,6.40
2018-12-19T18:18:25.991Z,6.40
2018-12-19T18:20:53.416Z,6.40
2018-12-19T18:23:20.865Z,6.40
2018-12-19T18:25:48.305Z,6.30
2018-12-19T18:28:15.794Z,6.40
2018-12-19T18:30:43.224Z,6.40
2018-12-19T18:33:10.763Z,6.40
2018-12-19T18:35:38.257Z,6.30
2018-12-19T18:38:05.704Z,6.30
2018-12-19T18:40:33.152Z,6.40
2018-12-19T18:43:00.594Z,6.40
2018-12-19T18:45:28.052Z,6.40
2018-12-19T18:47:55.502Z,6.40
2018-12-19T18:50:23.964Z,6.40
2018-12-19T18:52:51.395Z,6.30
2018-12-19T18:55:18.921Z,6.20
2018-12-19T18:57:46.364Z,6.30
2018-12-19T19:00:15.806Z,6.20
2018-12-19T19:02:43.305Z,6.20
2018-12-19T19:05:10.798Z,6.30
2018-12-19T19:07:38.354Z,6.40
2018-12-19T19:10:07.010Z,6.30
2018-12-19T19:12:34.527Z,6.40
2018-12-19T19:15:01.987Z,6.30
2018-12-19T19:17:29.441Z,6.40
2018-12-19T19:19:56.895Z,6.40
2018-12-19T19:22:24.345Z,6.40
2018-12-19T19:24:51.819Z,6.30
2018-12-19T19:27:19.309Z,6.30
2018-12-19T19:29:46.885Z,6.30
2018-12-19T19:32:14.430Z,6.20
2018-12-19T19:34:41.883Z,6.20
2018-12-19T19:37:09.339Z,6.20
2018-12-19T19:39:36.782Z,6.20
2018-12-19T19:42:04.234Z,6.20
2018-12-19T19:44:31.784Z,6.20
2018-12-19T19:46:59.229Z,6.20
2018-12-19T19:49:26.688Z,6.30
2018-12-19T19:51:54.183Z,6.30
2018-12-19T19:54:21.657Z,6.20
2018-12-19T19:56:49.098Z,6.20
2018-12-19T19:59:16.538Z,6.20
2018-12-19T20:01:44.010Z,6.20
2018-12-19T20:04:11.416Z,6.10
2018-12-19T20:06:39.037Z,6.10
2018-12-19T20:09:07.911Z,6.00
2018-12-19T20:11:35.417Z,6.10
2018-12-19T20:14:02.864Z,6.00
2018-12-19T20:16:30.311Z,6.10
2018-12-19T20:18:57.750Z,6.00
2018-12-19T20:21:25.313Z,6.00
2018-12-19T20:23:52.849Z,6.00
2018-12-19T20:26:20.366Z,6.10
2018-12-19T20:28:47.816Z,6.20
2018-12-19T20:31:15.235Z,6.20
2018-12-19T20:33:42.698Z,6.20
2018-12-19T20:36:10.150Z,6.20
2018-12-19T20:38:37.622Z,6.20
2018-12-19T20:41:05.064Z,6.20
2018-12-19T20:43:32.513Z,6.20
2018-12-19T20:45:59.964Z,6.20
2018-12-19T20:48:27.403Z,6.10
2018-12-19T20:50:54.847Z,6.20
2018-12-19T20:53:22.275Z,6.20
2018-12-19T20:55:49.775Z,6.30
2018-12-19T20:58:17.241Z,6.20
2018-12-19T21:00:44.925Z,6.20
2018-12-19T21:03:12.590Z,6.20
2018-12-19T21:05:40.048Z,6.20
2018-12-19T21:08:07.482Z,6.10
2018-12-19T21:10:34.908Z,6.10
2018-12-19T21:13:02.360Z,6.20
2018-12-19T21:15:29.797Z,6.20
2018-12-19T21:18:02.927Z,6.20
2018-12-19T21:20:30.374Z,6.20
2018-12-19T21:22:57.885Z,6.20
2018-12-19T21:25:25.345Z,6.20
2018-12-19T21:27:52.794Z,6.20
2018-12-19T21:30:20.251Z,6.20
2018-12-19T21:32:47.695Z,6.30
2018-12-19T21:35:15.221Z,6.20
2018-12-19T21:37:42.732Z,6.20
2018-12-19T21:40:10.225Z,6.30
2018-12-19T21:42:37.979Z,6.30
2018-12-19T21:45:06.205Z,6.40
2018-12-19T21:47:33.836Z,6.40
2018-12-19T21:50:02.304Z,6.40
2018-12-19T21:52:29.880Z,6.40
2018-12-19T21:57:52.801Z,6.50
2018-12-19T22:00:22.290Z,6.40
2018-12-19T22:02:49.815Z,6.40
2018-12-19T22:05:17.392Z,6.40
2018-12-19T22:07:44.884Z,6.40
2018-12-19T22:10:12.501Z,6.40
2018-12-19T22:15:34.194Z,6.40
2018-12-19T22:20:52.387Z,6.40
2018-12-19T22:26:14.565Z,6.50
2018-12-19T22:28:42.023Z,6.50
2018-12-19T22:31:09.549Z,6.60
2018-12-19T22:33:37.097Z,6.50
2018-12-19T22:36:04.603Z,6.60
2018-12-19T22:38:32.163Z,6.60
2018-12-19T22:40:59.612Z,6.50
2018-12-19T22:43:27.063Z,6.60
2018-12-19T22:45:54.516Z,6.60
2018-12-19T22:48:22.110Z,6.60
2018-12-19T22:50:49.557Z,6.60
2018-12-19T22:53:17.020Z,6.60
2018-12-19T22:55:44.504Z,6.70
2018-12-19T22:58:12.005Z,6.70
2018-12-19T23:03:56.383Z,6.70
2018-12-19T23:06:23.978Z,6.70
2018-12-19T23:08:51.492Z,6.70
2018-12-19T23:11:19.005Z,6.70
2018-12-19T23:13:46.448Z,6.60
2018-12-19T23:16:13.997Z,6.70
2018-12-19T23:18:41.613Z,6.60
2018-12-19T23:21:09.150Z,6.60
2018-12-19T23:23:36.639Z,6.60
2018-12-19T23:26:04.145Z,6.60
2018-12-19T23:28:31.762Z,6.60
2018-12-19T23:30:59.291Z,6.70
2018-12-19T23:33:26.897Z,6.70
2018-12-19T23:35:54.418Z,6.60
2018-12-19T23:38:22.189Z,6.60
2018-12-19T23:40:49.731Z,6.60
2018-12-19T23:43:17.345Z,6.70
2018-12-19T23:45:44.771Z,6.60
2018-12-19T23:56:44.706Z,6.70
2018-12-19T23:59:12.128Z,6.70
